Time;durP1;ratioP1;P1;durP2;ratioP2;P2;SDS_P1;SDS_P2;PMS_P1;PMS_P2;Temp;Humidity;BMP_temperature;BMP_pressure;BME280_temperature;BME280_humidity;BME280_pressure;Samples;Min_cycle;Max_cycle;Signal;HPM_P1;HPM_P2
2022/12/22 03:36:17;;;;;;;19.83;12.93;;;6.30;99.90;;;;;;6143462;23;20179;-82
2022/12/22 03:52:19;;;;;;;18.63;12.15;;;6.20;99.90;;;;;;6220767;23;20246;-82
2022/12/22 04:15:59;;;;;;;18.42;13.63;;;6.40;99.90;;;;;;5968658;24;20666;-82
2022/12/22 04:32:59;;;;;;;16.75;13.55;;;6.30;99.90;;;;;;6116645;23;20542;-82
2022/12/22 04:35:40;;;;;;;21.90;15.70;;;;;;;;;;6070414;23;20179;-83
2022/12/22 04:44:28;;;;;;;24.98;16.80;;;;;;;;;;6080552;23;20383;-82
2022/12/22 04:50:10;;;;;;;21.75;15.25;;;;;;;;;;6129966;23;20181;-83
2022/12/22 04:52:43;;;;;;;22.40;14.60;;;;;;;;;;6246299;22;20252;-84
2022/12/22 04:55:14;;;;;;;24.50;16.00;;;;;;;;;;6252777;23;20155;-83
2022/12/22 05:07:32;;;;;;;20.40;14.75;;;;;;;;;;6203134;22;20241;-87
2022/12/22 05:10:00;;;;;;;23.33;15.20;;;6.40;99.90;;;;;;6253622;23;20257;-87
2022/12/22 05:15:11;;;;;;;23.70;16.88;;;6.40;99.90;;;;;;6250421;23;20159;-87
2022/12/22 05:17:38;;;;;;;22.35;15.85;;;6.60;99.90;;;;;;6222619;22;20755;-87
2022/12/22 05:20:06;;;;;;;25.38;16.10;;;;;;;;;;6221026;23;20214;-87
2022/12/22 05:22:33;;;;;;;30.75;16.15;;;6.80;99.90;;;;;;6221332;23;20274;-87
2022/12/22 05:25:01;;;;;;;24.90;17.67;;;6.50;99.90;;;;;;6218302;23;20175;-87
2022/12/22 05:27:28;;;;;;;25.60;15.77;;;6.50;99.90;;;;;;6219224;23;20278;-87
2022/12/22 05:29:55;;;;;;;27.02;19.63;;;6.40;99.90;;;;;;6218249;23;20199;-87
2022/12/22 05:32:21;;;;;;;24.40;17.23;;;6.60;99.90;;;;;;6218829;23;20230;-87
2022/12/22 05:34:48;;;;;;;26.48;17.30;;;6.90;99.90;;;;;;6218737;23;20290;-87
2022/12/22 05:37:15;;;;;;;34.90;17.02;;;6.80;99.90;;;;;;6218085;23;20192;-87
2022/12/22 05:39:42;;;;;;;30.25;17.63;;;6.80;99.90;;;;;;6218074;23;20567;-87
2022/12/22 05:42:10;;;;;;;27.90;18.15;;;6.60;99.90;;;;;;6218101;23;20512;-86
2022/12/22 05:44:37;;;;;;;25.13;16.25;;;6.70;99.90;;;;;;6217398;23;20258;-86
2022/12/22 05:47:04;;;;;;;34.35;18.27;;;6.60;99.90;;;;;;6219201;23;20222;-87
2022/12/22 05:49:33;;;;;;;34.92;19.65;;;6.50;99.90;;;;;;6217120;23;20257;-87
2022/12/22 05:52:00;;;;;;;30.05;18.17;;;6.60;99.90;;;;;;6218034;23;20274;-86
2022/12/22 05:54:27;;;;;;;26.88;18.45;;;6.50;99.90;;;;;;6217595;23;20576;-87
2022/12/22 05:56:54;;;;;;;29.60;18.85;;;6.50;99.90;;;;;;6217698;23;20195;-86
2022/12/22 05:59:22;;;;;;;36.05;20.63;;;6.20;99.90;;;;;;6217298;23;20213;-86
2022/12/22 06:01:49;;;;;;;35.67;21.65;;;6.50;99.90;;;;;;6217549;23;20507;-86
2022/12/22 06:04:15;;;;;;;31.52;21.20;;;6.90;99.90;;;;;;6216852;23;20206;-87
2022/12/22 06:06:42;;;;;;;30.75;20.08;;;6.50;99.90;;;;;;6223128;22;20219;-86
2022/12/22 06:09:09;;;;;;;36.45;20.27;;;6.10;99.90;;;;;;6244292;22;20164;-88
2022/12/22 06:11:36;;;;;;;31.70;19.50;;;6.80;99.90;;;;;;6236166;22;20183;-86
2022/12/22 06:14:03;;;;;;;30.42;20.10;;;6.50;99.90;;;;;;6221008;23;20175;-86
2022/12/22 06:16:31;;;;;;;38.40;20.33;;;6.50;99.90;;;;;;6218984;23;20218;-86
2022/12/22 06:18:58;;;;;;;37.65;22.00;;;6.50;99.90;;;;;;6219485;23;20233;-86
2022/12/22 06:21:25;;;;;;;34.13;20.90;;;6.40;99.90;;;;;;6219772;23;20689;-86
2022/12/22 06:23:53;;;;;;;30.75;20.33;;;6.60;99.90;;;;;;6221756;23;20542;-86
2022/12/22 06:26:21;;;;;;;35.50;20.30;;;6.50;99.90;;;;;;6223302;23;20245;-86
2022/12/22 06:28:48;;;;;;;33.88;21.02;;;6.60;99.90;;;;;;6223218;23;20266;-86
2022/12/22 06:31:15;;;;;;;41.15;27.42;;;6.30;99.90;;;;;;6221103;23;20203;-86
2022/12/22 06:33:44;;;;;;;41.50;25.88;;;;;;;;;;6218923;23;20279;-87
2022/12/22 06:36:11;;;;;;;35.10;21.30;;;6.70;99.90;;;;;;6218084;23;20274;-87
2022/12/22 06:38:38;;;;;;;31.38;20.10;;;6.70;99.90;;;;;;6218867;23;20214;-87
2022/12/22 06:41:05;;;;;;;28.67;19.95;;;6.90;99.90;;;;;;6221969;23;20230;-87
2022/12/22 06:43:31;;;;;;;30.55;20.23;;;;;;;;;;6220070;23;20182;-87
2022/12/22 06:45:58;;;;;;;33.70;20.55;;;;;;;;;;6218052;23;20199;-86
2022/12/22 06:48:26;;;;;;;30.10;19.83;;;;;;;;;;6238426;22;20175;-87
2022/12/22 06:50:57;;;;;;;28.33;20.20;;;6.70;99.90;;;;;;6243838;22;20182;-88
2022/12/22 06:53:25;;;;;;;29.73;18.92;;;7.80;99.90;;;;;;6243913;22;20210;-86
2022/12/22 06:55:52;;;;;;;30.35;18.63;;;6.80;99.90;;;;;;6244018;22;20199;-87
2022/12/22 06:58:19;;;;;;;32.53;19.95;;;6.80;99.90;;;;;;6242341;23;20178;-86
2022/12/22 07:00:48;;;;;;;33.15;20.10;;;6.80;99.90;;;;;;6234564;23;20175;-87
2022/12/22 07:03:15;;;;;;;33.53;21.77;;;6.80;99.90;;;;;;6218422;23;20175;-87
2022/12/22 07:05:42;;;;;;;30.33;18.80;;;7.10;99.90;;;;;;6218880;23;20204;-87
2022/12/22 07:08:10;;;;;;;31.42;19.25;;;6.80;99.90;;;;;;6216837;23;20242;-87
2022/12/22 07:13:22;;;;;;;34.90;18.73;;;6.80;99.90;;;;;;6217449;23;20190;-86
2022/12/22 07:15:50;;;;;;;29.38;18.88;;;6.70;99.90;;;;;;6217756;23;20199;-87
2022/12/22 07:18:17;;;;;;;28.15;18.10;;;6.80;99.90;;;;;;6218889;23;20193;-88
2022/12/22 07:20:43;;;;;;;33.30;20.58;;;6.80;99.90;;;;;;6219003;23;20565;-86
2022/12/22 07:23:12;;;;;;;28.05;18.95;;;6.80;99.90;;;;;;6217962;23;20182;-87
2022/12/22 07:25:39;;;;;;;31.02;19.45;;;6.90;99.90;;;;;;6217131;23;20175;-86
2022/12/22 07:28:07;;;;;;;31.10;18.60;;;6.90;99.90;;;;;;6233128;23;20234;-86
2022/12/22 07:30:35;;;;;;;38.45;20.30;;;6.90;99.90;;;;;;6236268;23;20180;-86
2022/12/22 07:33:02;;;;;;;36.08;19.58;;;7.20;99.90;;;;;;6235287;23;20209;-86
2022/12/22 07:35:29;;;;;;;37.65;21.30;;;6.90;99.90;;;;;;6234879;23;20179;-87
2022/12/22 07:37:56;;;;;;;29.77;20.60;;;6.90;99.90;;;;;;6233521;23;20186;-86
2022/12/22 07:40:24;;;;;;;31.48;19.50;;;7.10;99.90;;;;;;6223903;23;20175;-87
2022/12/22 07:42:54;;;;;;;32.05;20.95;;;6.90;99.90;;;;;;6220217;23;20182;-87
2022/12/22 07:45:21;;;;;;;33.65;20.52;;;6.90;99.90;;;;;;6218545;23;20207;-87
2022/12/22 07:47:48;;;;;;;28.10;19.20;;;6.80;99.90;;;;;;6232428;23;20203;-87
2022/12/22 07:50:26;;;;;;;29.70;17.60;;;6.60;99.90;;;;;;6243194;22;20150;-88
2022/12/22 07:52:54;;;;;;;33.78;19.55;;;6.90;99.90;;;;;;6243447;22;20181;-89
2022/12/22 07:55:22;;;;;;;38.58;20.05;;;6.80;99.90;;;;;;6242661;22;20167;-86
2022/12/22 07:57:50;;;;;;;32.58;19.25;;;6.90;99.90;;;;;;6236568;23;20206;-87
2022/12/22 08:00:18;;;;;;;30.70;17.50;;;6.90;99.90;;;;;;6231804;23;20198;-87
2022/12/22 08:02:49;;;;;;;28.08;18.90;;;6.90;99.90;;;;;;6230686;23;20512;-86
2022/12/22 08:05:16;;;;;;;33.00;18.33;;;6.70;99.90;;;;;;6227157;23;20219;-88
2022/12/22 08:07:43;;;;;;;28.48;17.52;;;7.10;99.90;;;;;;6242113;22;20235;-90
2022/12/22 08:10:10;;;;;;;26.85;16.98;;;7.10;99.90;;;;;;6243632;22;20186;-88
2022/12/22 08:12:38;;;;;;;37.47;19.13;;;6.90;99.90;;;;;;6236439;22;20263;-87
2022/12/22 08:15:08;;;;;;;25.60;16.27;;;6.80;99.90;;;;;;6226259;23;20190;-88
2022/12/22 08:17:35;;;;;;;28.48;17.70;;;;;;;;;;6224167;23;20195;-88
2022/12/22 08:20:03;;;;;;;32.15;19.83;;;6.60;99.90;;;;;;6224331;23;20179;-87
2022/12/22 08:22:31;;;;;;;32.47;19.30;;;6.90;99.90;;;;;;6222170;23;20179;-87
2022/12/22 08:24:58;;;;;;;32.65;20.23;;;6.90;99.90;;;;;;6222390;23;20636;-88
2022/12/22 08:27:29;;;;;;;31.17;18.48;;;6.90;99.90;;;;;;6219325;23;20195;-88
2022/12/22 08:29:59;;;;;;;30.10;17.20;;;6.90;99.90;;;;;;6219727;23;20187;-88
2022/12/22 08:32:27;;;;;;;29.05;18.55;;;7.00;99.90;;;;;;6220970;23;20186;-87
2022/12/22 08:34:54;;;;;;;26.00;18.55;;;6.90;99.90;;;;;;6219222;23;20254;-86
2022/12/22 08:37:26;;;;;;;31.77;18.65;;;6.90;99.90;;;;;;6218960;23;20198;-87
2022/12/22 08:39:56;;;;;;;29.00;17.65;;;6.90;99.90;;;;;;6219017;23;20246;-87
2022/12/22 08:42:25;;;;;;;23.45;17.50;;;6.90;99.90;;;;;;6220462;23;20179;-87
2022/12/22 08:44:52;;;;;;;27.45;18.58;;;7.00;99.90;;;;;;6219044;23;20707;-87
2022/12/22 08:47:20;;;;;;;34.05;19.85;;;6.90;99.90;;;;;;6219838;23;20201;-87
2022/12/22 08:49:49;;;;;;;24.50;17.75;;;7.00;99.90;;;;;;6230209;22;20523;-87
2022/12/22 08:52:16;;;;;;;28.13;17.23;;;7.10;99.90;;;;;;6220352;23;20186;-87
2022/12/22 08:54:43;;;;;;;27.73;17.60;;;7.00;99.90;;;;;;6219455;23;20230;-88
2022/12/22 08:57:10;;;;;;;29.40;18.73;;;7.00;99.90;;;;;;6219734;23;20231;-87
2022/12/22 08:59:37;;;;;;;29.35;19.63;;;7.00;99.90;;;;;;6219384;23;20175;-87
2022/12/22 09:02:04;;;;;;;28.95;17.70;;;7.30;99.90;;;;;;6223161;23;20217;-87
2022/12/22 09:04:33;;;;;;;26.50;16.92;;;6.90;99.90;;;;;;6244628;22;20219;-89
2022/12/22 09:07:02;;;;;;;30.70;18.95;;;7.10;99.90;;;;;;6245048;22;20202;-88
2022/12/22 09:09:33;;;;;;;22.75;16.75;;;7.20;99.90;;;;;;6235334;22;20262;-87
2022/12/22 09:12:00;;;;;;;23.35;17.33;;;7.20;99.90;;;;;;6218881;23;20163;-85
2022/12/22 09:14:27;;;;;;;25.02;17.13;;;7.20;99.90;;;;;;6217888;23;20676;-86
2022/12/22 09:16:54;;;;;;;23.58;16.35;;;7.30;99.90;;;;;;6218549;23;20201;-87
2022/12/22 09:19:21;;;;;;;27.50;18.05;;;;;;;;;;6219069;23;20253;-86
2022/12/22 09:21:48;;;;;;;28.50;16.60;;;7.40;99.90;;;;;;6218715;23;20513;-86
2022/12/22 09:24:17;;;;;;;24.02;15.45;;;7.30;99.90;;;;;;6232231;23;20176;-86
2022/12/22 09:26:44;;;;;;;21.80;14.98;;;7.50;99.90;;;;;;6243922;22;20202;-86
2022/12/22 09:29:14;;;;;;;26.60;17.70;;;7.70;99.90;;;;;;6225526;23;20171;-86
2022/12/22 09:31:41;;;;;;;25.10;16.08;;;7.30;99.90;;;;;;6219332;23;20181;-86
2022/12/22 09:34:08;;;;;;;23.65;15.68;;;7.60;99.90;;;;;;6218854;23;20195;-86
2022/12/22 09:36:35;;;;;;;22.92;15.60;;;7.40;99.90;;;;;;6218858;23;20282;-86
2022/12/22 09:39:04;;;;;;;19.77;15.82;;;7.10;99.90;;;;;;6218998;23;20505;-87
2022/12/22 09:41:36;;;;;;;32.78;18.02;;;7.40;99.90;;;;;;6219981;23;20245;-86
2022/12/22 09:44:05;;;;;;;29.95;18.52;;;7.50;99.90;;;;;;6219454;23;20183;-87
2022/12/22 09:46:35;;;;;;;27.58;16.63;;;7.20;99.90;;;;;;6218580;23;20297;-87
2022/12/22 09:49:02;;;;;;;33.65;21.27;;;7.40;99.90;;;;;;6219141;23;20179;-87
2022/12/22 09:51:30;;;;;;;24.58;18.65;;;7.50;99.90;;;;;;6219801;23;20175;-86
2022/12/22 09:53:59;;;;;;;23.50;16.35;;;7.50;99.90;;;;;;6223294;23;20251;-87
2022/12/22 09:56:27;;;;;;;24.75;16.90;;;7.50;99.90;;;;;;6234249;23;20199;-88
2022/12/22 09:58:57;;;;;;;22.27;16.55;;;6.40;99.90;;;;;;6224852;23;20179;-87
2022/12/22 10:01:45;;;;;;;24.20;16.10;;;7.50;99.90;;;;;;6221453;23;20179;-88
2022/12/22 10:04:22;;;;;;;22.60;15.02;;;7.30;99.90;;;;;;6220390;23;20776;-88
2022/12/22 10:06:58;;;;;;;20.70;14.20;;;7.50;99.90;;;;;;6220622;23;20730;-89
2022/12/22 10:09:27;;;;;;;19.05;13.40;;;7.90;99.90;;;;;;6221301;23;20528;-89
2022/12/22 10:11:56;;;;;;;27.85;15.75;;;7.60;99.90;;;;;;6219537;23;20175;-88
2022/12/22 10:14:31;;;;;;;24.77;16.20;;;7.90;99.90;;;;;;6239045;23;20745;-88
2022/12/22 10:17:20;;;;;;;20.25;15.40;;;7.60;99.90;;;;;;6244459;22;20198;-87
2022/12/22 10:19:48;;;;;;;20.58;14.85;;;7.60;99.90;;;;;;6219297;23;20164;-88
2022/12/22 10:22:28;;;;;;;23.63;15.15;;;7.70;99.90;;;;;;6220371;23;20207;-88
2022/12/22 10:24:56;;;;;;;22.40;15.23;;;7.60;99.90;;;;;;6226616;23;20210;-88
2022/12/22 10:27:27;;;;;;;22.45;14.27;;;7.60;99.90;;;;;;6224347;23;20730;-88
2022/12/22 10:30:15;;;;;;;20.85;13.65;;;7.70;99.90;;;;;;6219755;23;20190;-88
2022/12/22 10:32:42;;;;;;;19.65;13.65;;;7.90;99.90;;;;;;6226986;23;20191;-87
2022/12/22 10:35:09;;;;;;;22.97;16.70;;;7.40;99.90;;;;;;6224858;23;20203;-88
2022/12/22 10:37:38;;;;;;;17.80;12.33;;;7.80;99.90;;;;;;6228543;23;20430;-88
2022/12/22 10:40:16;;;;;;;18.50;13.93;;;7.80;99.90;;;;;;6219445;23;20461;-88
2022/12/22 10:42:51;;;;;;;39.72;24.00;;;7.60;99.90;;;;;;6218681;23;20181;-88
2022/12/22 10:45:22;;;;;;;21.70;14.88;;;7.80;99.90;;;;;;6218635;23;20191;-88
2022/12/22 10:47:53;;;;;;;20.45;13.45;;;7.80;99.90;;;;;;6220391;23;20167;-88
2022/12/22 10:50:21;;;;;;;18.08;13.15;;;8.20;99.90;;;;;;6226160;23;20219;-88
2022/12/22 10:52:54;;;;;;;17.38;13.00;;;8.00;99.90;;;;;;6224101;23;20210;-88
2022/12/22 10:55:24;;;;;;;17.45;13.80;;;7.70;99.90;;;;;;6220764;23;20199;-87
2022/12/22 10:57:52;;;;;;;18.90;13.68;;;7.70;99.90;;;;;;6219314;23;20179;-88
2022/12/22 11:00:26;;;;;;;18.10;13.32;;;8.00;99.90;;;;;;6219761;23;20262;-88
2022/12/22 11:02:54;;;;;;;15.97;12.20;;;7.90;99.90;;;;;;6231758;23;20175;-88
2022/12/22 11:05:21;;;;;;;19.45;13.23;;;8.10;99.90;;;;;;6226819;23;20430;-87
2022/12/22 11:09:07;;;;;;;16.27;11.83;;;8.00;99.90;;;;;;6254800;22;20202;-83
2022/12/22 11:12:08;;;;;;;17.05;12.20;;;8.00;99.90;;;;;;6242326;22;20744;-83
2022/12/22 11:22:23;;;;;;;19.60;13.23;;;8.10;99.90;;;;;;6221553;23;20384;-84
2022/12/22 11:28:59;;;;;;;16.98;13.93;;;8.20;99.90;;;;;;6250442;22;20198;-83
2022/12/22 11:32:08;;;;;;;13.87;11.93;;;8.30;99.90;;;;;;6159657;23;20527;-86
2022/12/22 11:35:24;;;;;;;19.00;12.10;;;8.30;99.90;;;;;;6160962;23;20419;-84
2022/12/22 11:38:47;;;;;;;16.40;13.13;;;8.40;99.90;;;;;;6160127;23;20410;-84
2022/12/22 11:41:34;;;;;;;22.67;15.67;;;8.40;99.90;;;;;;6243755;22;20458;-86
2022/12/22 11:44:26;;;;;;;25.00;16.83;;;8.30;99.90;;;;;;6262877;22;20401;-87
2022/12/22 11:46:59;;;;;;;20.77;16.40;;;8.00;99.90;;;;;;6263677;22;20375;-87
2022/12/22 11:49:56;;;;;;;23.50;16.00;;;8.60;99.90;;;;;;6261395;22;20429;-86
2022/12/22 11:52:44;;;;;;;19.00;15.70;;;8.30;99.90;;;;;;6232151;22;20414;-86
2022/12/22 11:55:17;;;;;;;19.17;14.20;;;8.40;99.90;;;;;;6237931;23;20473;-86
2022/12/22 11:57:57;;;;;;;15.37;13.33;;;8.40;99.90;;;;;;6226746;23;20844;-86
2022/12/22 12:00:25;;;;;;;12.93;11.50;;;;;;;;;;6231072;23;20408;-87
2022/12/22 12:03:19;;;;;;;16.60;13.90;;;8.40;99.90;;;;;;6233715;23;20406;-87
2022/12/22 12:06:06;;;;;;;13.57;12.10;;;8.60;99.90;;;;;;6237536;23;20409;-88
2022/12/22 12:08:46;;;;;;;19.30;12.67;;;8.40;99.90;;;;;;6232481;23;20386;-86
2022/12/22 12:11:24;;;;;;;19.27;13.77;;;8.40;99.90;;;;;;6230307;23;20393;-88
2022/12/22 12:14:00;;;;;;;17.53;12.13;;;8.40;99.90;;;;;;6228678;23;20401;-88
2022/12/22 12:16:38;;;;;;;19.90;14.03;;;8.40;99.90;;;;;;6230891;23;20756;-87
2022/12/22 12:19:34;;;;;;;15.67;12.80;;;8.40;99.90;;;;;;6232197;23;20405;-87
2022/12/22 12:22:06;;;;;;;16.53;13.80;;;8.40;99.90;;;;;;6165727;23;20426;-87
2022/12/22 12:24:51;;;;;;;18.77;14.50;;;8.40;99.90;;;;;;6222523;23;20904;-88
2022/12/22 12:27:38;;;;;;;18.47;14.40;;;8.40;99.90;;;;;;6233324;23;20446;-87
2022/12/22 12:30:16;;;;;;;20.40;14.20;;;8.90;99.90;;;;;;6235146;23;20439;-87
2022/12/22 12:32:59;;;;;;;23.03;13.77;;;8.50;99.90;;;;;;6234752;23;20391;-86
2022/12/22 12:35:43;;;;;;;17.83;13.43;;;8.50;99.90;;;;;;6232508;23;20437;-87
2022/12/22 12:38:14;;;;;;;19.03;13.60;;;8.50;99.90;;;;;;6229296;23;20395;-87
2022/12/22 12:40:53;;;;;;;17.50;15.63;;;8.50;99.90;;;;;;6229408;23;20409;-88
2022/12/22 12:43:20;;;;;;;21.00;17.30;;;8.50;99.90;;;;;;6225392;23;20373;-86
2022/12/22 12:45:49;;;;;;;17.70;14.57;;;8.50;99.90;;;;;;6222324;23;20436;-88
2022/12/22 12:48:41;;;;;;;15.37;13.30;;;8.50;99.90;;;;;;6221571;23;20402;-87
2022/12/22 12:51:46;;;;;;;15.27;12.20;;;8.00;99.90;;;;;;6221524;23;20581;-86
2022/12/22 12:54:36;;;;;;;16.83;13.43;;;8.50;99.90;;;;;;6224665;23;20413;-87
2022/12/22 12:57:12;;;;;;;14.53;12.23;;;8.50;99.90;;;;;;6210944;23;20418;-86
2022/12/22 12:59:48;;;;;;;20.40;13.73;;;8.50;99.90;;;;;;6224029;23;20432;-87
2022/12/22 13:02:36;;;;;;;14.30;11.80;;;8.60;99.90;;;;;;6224862;23;20361;-87
2022/12/22 13:05:30;;;;;;;18.37;13.60;;;8.50;99.90;;;;;;6226560;23;20382;-88
2022/12/22 13:08:24;;;;;;;21.23;13.23;;;8.60;99.90;;;;;;6214634;23;20410;-87
2022/12/22 13:11:21;;;;;;;14.43;11.20;;;8.90;99.90;;;;;;6156408;23;20438;-88
2022/12/22 13:13:50;;;;;;;17.20;11.80;;;;;;;;;;6217533;23;20749;-88
2022/12/22 13:16:28;;;;;;;17.33;12.97;;;8.80;99.90;;;;;;6232454;23;20388;-87
2022/12/22 13:18:59;;;;;;;14.30;12.07;;;;;;;;;;6221920;23;20454;-87
2022/12/22 13:21:29;;;;;;;15.57;12.60;;;8.60;99.90;;;;;;6221123;23;20435;-87
2022/12/22 13:24:04;;;;;;;17.83;13.90;;;8.60;99.90;;;;;;6221977;23;20402;-87
2022/12/22 13:26:34;;;;;;;15.63;11.73;;;8.60;99.90;;;;;;6224791;23;20376;-87
2022/12/22 13:29:09;;;;;;;17.80;14.27;;;8.60;99.90;;;;;;6225117;23;20407;-87
2022/12/22 13:31:41;;;;;;;16.53;12.10;;;8.60;99.90;;;;;;6227192;23;20378;-87
2022/12/22 13:34:31;;;;;;;16.00;12.17;;;8.80;99.90;;;;;;6223933;23;20427;-87
2022/12/22 13:37:00;;;;;;;16.40;13.50;;;8.60;99.90;;;;;;6224768;23;20879;-87
2022/12/22 13:39:27;;;;;;;17.77;12.33;;;;;;;;;;6224070;23;21105;-87
2022/12/22 13:41:55;;;;;;;14.23;12.50;;;8.60;99.90;;;;;;6225464;23;20470;-87
2022/12/22 13:44:32;;;;;;;16.10;12.40;;;8.60;99.90;;;;;;6224340;23;20414;-87
2022/12/22 13:47:03;;;;;;;17.10;13.50;;;8.60;99.90;;;;;;6224894;23;20397;-87
2022/12/22 13:49:34;;;;;;;14.93;12.67;;;8.60;99.90;;;;;;6224846;23;20412;-87
2022/12/22 13:52:18;;;;;;;19.77;15.70;;;8.60;99.90;;;;;;6225043;23;20375;-87
2022/12/22 13:54:46;;;;;;;13.57;11.27;;;8.30;99.90;;;;;;6222781;23;20475;-88
2022/12/22 13:57:20;;;;;;;14.50;12.90;;;8.70;99.90;;;;;;6224726;23;20830;-88
2022/12/22 13:59:51;;;;;;;17.57;13.70;;;8.70;99.90;;;;;;6225513;23;20922;-87
2022/12/22 14:02:20;;;;;;;18.67;13.00;;;8.90;99.90;;;;;;6224772;23;20437;-87
2022/12/22 14:05:05;;;;;;;19.30;13.23;;;8.70;99.90;;;;;;6224738;23;20417;-87
2022/12/22 14:07:32;;;;;;;19.80;14.17;;;8.70;99.90;;;;;;6224753;23;20725;-87
2022/12/22 14:09:59;;;;;;;17.70;12.43;;;8.70;99.90;;;;;;6224959;23;20430;-87
2022/12/22 14:12:29;;;;;;;16.60;12.20;;;8.70;99.90;;;;;;6226003;23;20576;-87
2022/12/22 14:15:01;;;;;;;15.87;11.07;;;8.70;99.90;;;;;;6227404;23;20427;-88
2022/12/22 14:17:33;;;;;;;17.60;13.00;;;8.70;99.90;;;;;;6235724;23;20422;-87
2022/12/22 14:20:09;;;;;;;20.50;13.57;;;8.70;99.90;;;;;;6227596;23;20893;-87
2022/12/22 14:22:40;;;;;;;17.57;13.87;;;8.70;99.90;;;;;;6227402;23;20567;-87
2022/12/22 14:25:14;;;;;;;16.37;12.80;;;8.80;99.90;;;;;;6229411;23;20394;-87
2022/12/22 14:27:44;;;;;;;16.53;11.30;;;8.80;99.90;;;;;;6233901;23;20390;-87
2022/12/22 14:30:19;;;;;;;13.53;11.77;;;8.80;99.90;;;;;;6230066;23;20458;-87
2022/12/22 14:32:48;;;;;;;16.00;11.47;;;8.80;99.90;;;;;;6224151;23;20819;-87
2022/12/22 14:35:27;;;;;;;15.00;10.97;;;8.80;99.90;;;;;;6223674;23;20413;-87
2022/12/22 14:38:07;;;;;;;15.10;11.77;;;8.80;99.90;;;;;;6224650;23;20704;-87
2022/12/22 14:40:37;;;;;;;14.10;11.50;;;8.80;99.90;;;;;;6225046;23;20441;-86
2022/12/22 14:43:07;;;;;;;15.30;11.23;;;8.80;99.90;;;;;;6228339;23;20414;-86
2022/12/22 14:45:35;;;;;;;12.10;10.30;;;;;;;;;;6228083;23;20372;-86
2022/12/22 14:48:10;;;;;;;15.27;10.03;;;8.80;99.90;;;;;;6227144;23;20400;-87
2022/12/22 14:50:51;;;;;;;10.93;9.33;;;8.80;99.90;;;;;;6226127;23;20400;-86
2022/12/22 14:53:27;;;;;;;10.40;8.67;;;8.80;99.90;;;;;;6226418;23;20458;-87
2022/12/22 14:55:54;;;;;;;12.23;9.70;;;;;;;;;;6225131;23;20405;-86
2022/12/22 14:58:25;;;;;;;9.90;8.30;;;8.80;99.90;;;;;;6225710;23;20406;-87
2022/12/22 15:01:19;;;;;;;10.60;8.77;;;8.80;99.90;;;;;;6234481;23;20389;-87
2022/12/22 15:03:58;;;;;;;10.60;8.60;;;8.80;99.90;;;;;;6226053;23;20787;-87
2022/12/22 15:06:34;;;;;;;9.10;7.13;;;9.00;99.90;;;;;;6220393;23;20409;-87
2022/12/22 15:09:24;;;;;;;8.60;7.73;;;8.70;99.90;;;;;;6219297;23;20519;-86
2022/12/22 15:11:58;;;;;;;7.10;5.87;;;8.80;99.90;;;;;;6219811;23;20372;-87
2022/12/22 15:14:26;;;;;;;7.60;6.83;;;8.80;99.90;;;;;;6219415;23;20364;-88
2022/12/22 15:17:03;;;;;;;6.10;5.50;;;8.80;99.90;;;;;;6220407;23;20442;-88
2022/12/22 15:19:33;;;;;;;7.07;6.37;;;8.70;99.90;;;;;;6219669;23;20434;-87
2022/12/22 15:22:00;;;;;;;6.90;6.13;;;;;;;;;;6221275;23;20468;-87
2022/12/22 15:24:28;;;;;;;7.07;6.37;;;;;;;;;;6224206;23;20406;-87
2022/12/22 15:26:55;;;;;;;6.40;5.83;;;;;;;;;;6224911;23;20380;-87
2022/12/22 15:29:22;;;;;;;7.07;6.37;;;8.90;99.90;;;;;;6223008;23;20430;-87
2022/12/22 15:31:49;;;;;;;9.20;6.90;;;;;;;;;;6224116;23;20402;-87
2022/12/22 15:34:23;;;;;;;7.47;6.10;;;8.80;99.90;;;;;;6224184;23;20406;-87
2022/12/22 15:36:50;;;;;;;8.23;6.43;;;;;;;;;;6225125;23;20382;-87
2022/12/22 15:39:18;;;;;;;8.00;7.20;;;8.80;99.90;;;;;;6223722;23;20384;-87
2022/12/22 15:41:46;;;;;;;8.60;7.70;;;8.80;99.90;;;;;;6224984;23;20382;-86
2022/12/22 15:44:14;;;;;;;9.00;8.10;;;;;;;;;;6223877;23;20392;-87
2022/12/22 15:47:22;;;;;;;8.43;7.40;;;8.80;99.90;;;;;;6224254;23;20771;-87
2022/12/22 15:50:48;;;;;;;10.10;8.00;;;8.70;99.90;;;;;;6224073;23;20422;-87
2022/12/22 15:53:22;;;;;;;10.37;8.63;;;8.80;99.90;;;;;;6102743;23;20410;-86
2022/12/22 15:56:01;;;;;;;10.63;8.80;;;8.80;99.90;;;;;;6104676;23;20416;-87
2022/12/22 16:01:31;;;;;;;13.33;9.07;;;;;;;;;;6242570;22;20468;-83
2022/12/22 16:03:58;;;;;;;14.70;9.63;;;8.70;99.90;;;;;;6259424;22;20409;-86
2022/12/22 16:06:25;;;;;;;12.33;10.10;;;;;;;;;;6253644;22;20401;-86
2022/12/22 16:08:54;;;;;;;18.43;11.10;;;8.80;99.90;;;;;;6252898;23;20376;-86
2022/12/22 16:11:21;;;;;;;15.20;10.67;;;;;;;;;;6222841;22;20400;-86
2022/12/22 16:13:48;;;;;;;15.70;11.63;;;;;;;;;;6235623;22;20435;-86
2022/12/22 16:16:15;;;;;;;15.30;11.23;;;8.90;99.90;;;;;;6250156;23;20416;-86
2022/12/22 16:18:42;;;;;;;13.07;10.40;;;8.50;99.90;;;;;;6250729;22;20797;-87
2022/12/22 16:21:15;;;;;;;16.17;11.03;;;8.40;99.90;;;;;;6249850;22;20380;-87
2022/12/22 16:23:43;;;;;;;13.30;10.80;;;9.00;99.90;;;;;;6237014;22;20436;-87
2022/12/22 16:26:17;;;;;;;15.70;11.10;;;9.00;99.90;;;;;;6220686;23;20456;-87
2022/12/22 16:28:44;;;;;;;19.37;12.17;;;8.70;99.90;;;;;;6220368;23;20404;-87
2022/12/22 16:31:17;;;;;;;17.03;11.50;;;8.70;99.90;;;;;;6227641;23;20389;-88
2022/12/22 16:33:44;;;;;;;19.70;13.33;;;8.70;99.90;;;;;;6221733;23;20455;-87
2022/12/22 16:36:11;;;;;;;18.93;13.57;;;8.70;99.90;;;;;;6219806;23;20499;-86
2022/12/22 16:38:38;;;;;;;20.87;14.70;;;8.60;99.90;;;;;;6218922;23;20406;-87
2022/12/22 16:41:11;;;;;;;22.33;15.20;;;8.70;99.90;;;;;;6220595;23;20460;-87
2022/12/22 16:43:40;;;;;;;19.30;13.17;;;8.60;99.90;;;;;;6225853;23;20404;-87
2022/12/22 16:46:12;;;;;;;21.70;14.60;;;8.60;99.90;;;;;;6245268;22;20392;-87
2022/12/22 16:48:42;;;;;;;19.40;14.57;;;9.00;99.90;;;;;;6233993;23;20398;-86
2022/12/22 16:51:16;;;;;;;17.70;12.70;;;8.60;99.90;;;;;;6222719;23;20188;-87
2022/12/22 16:53:43;;;;;;;20.33;14.70;;;8.60;99.90;;;;;;6222467;23;20509;-87
2022/12/22 16:56:15;;;;;;;21.65;14.00;;;8.60;99.90;;;;;;6229855;23;20472;-87
2022/12/22 16:58:43;;;;;;;21.13;15.03;;;8.70;99.90;;;;;;6239550;23;20163;-86
2022/12/22 17:01:20;;;;;;;16.73;12.67;;;8.30;99.90;;;;;;6224860;23;20402;-87
2022/12/22 17:03:47;;;;;;;19.75;14.18;;;7.90;99.90;;;;;;6228378;23;20425;-87
2022/12/22 17:06:14;;;;;;;22.00;14.30;;;8.20;99.90;;;;;;6233855;23;20175;-87
2022/12/22 17:19:25;;;;;;;20.70;14.80;;;7.90;96.80;;;;;;6016054;23;20625;-88
2022/12/22 17:25:10;;;;;;;21.77;14.43;;;7.80;83.10;;;;;;6057677;23;20438;-89
2022/12/22 17:36:19;;;;;;;25.85;16.27;;;7.70;73.40;;;;;;6123678;23;20285;-88
2022/12/22 17:38:46;;;;;;;23.45;15.60;;;7.90;99.90;;;;;;6239160;22;20175;-85
2022/12/22 17:41:16;;;;;;;25.13;17.83;;;7.80;91.40;;;;;;6241042;23;20175;-87
2022/12/22 17:43:44;;;;;;;21.98;14.88;;;7.80;89.20;;;;;;6242449;22;20191;-86
2022/12/22 17:52:36;;;;;;;23.67;16.63;;;7.70;83.60;;;;;;6219790;23;20179;-84
2022/12/22 18:02:02;;;;;;;26.73;16.38;;;;;;;;;;6164059;23;20182;-85
2022/12/22 18:04:45;;;;;;;25.05;16.88;;;;;;;;;;6223235;23;20186;-85
2022/12/22 18:07:33;;;;;;;23.08;15.07;;;7.70;60.40;;;;;;6225841;23;20198;-85
2022/12/22 18:10:41;;;;;;;22.00;14.87;;;7.70;62.70;;;;;;6224995;23;20182;-85
2022/12/22 18:13:42;;;;;;;20.40;13.40;;;7.60;66.40;;;;;;6172884;23;20425;-85
2022/12/22 18:16:31;;;;;;;28.90;17.00;;;;;;;;;;6214580;23;21001;-85
2022/12/22 18:23:21;;;;;;;28.63;17.70;;;7.50;51.70;;;;;;6187413;23;20175;-85
2022/12/22 18:26:08;;;;;;;26.50;17.20;;;;;;;;;;6224280;23;20187;-85
2022/12/22 18:32:56;;;;;;;33.03;19.45;;;7.50;52.40;;;;;;6132823;23;20169;-85
2022/12/22 18:35:35;;;;;;;21.75;14.93;;;;;;;;;;6173312;23;20175;-84
2022/12/22 18:41:09;;;;;;;27.90;15.25;;;;;;;;;;6229717;23;20612;-83
2022/12/22 18:46:47;;;;;;;23.70;15.95;;;;;;;;;;6213804;22;20187;-83
2022/12/22 18:49:23;;;;;;;25.35;16.25;;;;;;;;;;6254428;22;20502;-83
2022/12/22 18:52:23;;;;;;;27.77;15.25;;;;;;;;;;6256903;23;20193;-85
2022/12/22 18:55:44;;;;;;;20.73;14.60;;;7.40;30.80;;;;;;6257133;23;20201;-85
2022/12/22 19:05:44;;;;;;;24.95;14.23;;;7.20;12.70;;;;;;6252430;23;20179;-85
2022/12/22 19:08:40;;;;;;;22.38;13.40;;;;;;;;;;6117224;23;20196;-85
2022/12/22 19:44:54;;;;;;;28.13;17.35;;;;;;;;;;6129148;23;20696;-85
2022/12/22 19:57:13;;;;;;;34.30;17.40;;;6.90;1.00;;;;;;6258729;23;20206;-84
2022/12/22 20:00:18;;;;;;;32.25;17.23;;;6.80;1.00;;;;;;6271549;23;20155;-84
2022/12/22 20:03:07;;;;;;;34.97;18.02;;;;;;;;;;6274017;22;20170;-84
2022/12/22 20:30:38;;;;;;;;;;;;;;;;;;;;;
2022/12/22 20:51:39;;;;;;;32.47;17.30;;;6.70;1.00;;;;;;6114710;23;20175;-85